sensor_id;sensor_type;location;lat;lon;timestamp;temperature;humidity
57390;DHT22;43217;52.694;6.214;2023-03-01T00:00:37;0.20;99.90
57390;DHT22;43217;52.694;6.214;2023-03-01T00:03:03;0.30;99.90
57390;DHT22;43217;52.694;6.214;2023-03-01T00:05:29;0.30;99.90
57390;DHT22;43217;52.694;6.214;2023-03-01T00:07:54;0.30;99.90
57390;DHT22;43217;52.694;6.214;2023-03-01T00:10:20;0.20;99.90
57390;DHT22;43217;52.694;6.214;2023-03-01T00:12:45;0.20;99.90
57390;DHT22;43217;52.694;6.214;2023-03-01T00:15:11;0.20;99.90
57390;DHT22;43217;52.694;6.214;2023-03-01T00:17:37;0.20;99.90
57390;DHT22;43217;52.694;6.214;2023-03-01T00:20:03;0.20;99.90
57390;DHT22;43217;52.694;6.214;2023-03-01T00:22:33;0.10;99.90
57390;DHT22;43217;52.694;6.214;2023-03-01T00:24:58;0.10;99.90
57390;DHT22;43217;52.694;6.214;2023-03-01T00:27:24;0.00;99.90
57390;DHT22;43217;52.694;6.214;2023-03-01T00:29:50;0.10;99.90
57390;DHT22;43217;52.694;6.214;2023-03-01T00:32:16;0.00;99.90
57390;DHT22;43217;52.694;6.214;2023-03-01T00:34:42;0.00;99.90
57390;DHT22;43217;52.694;6.214;2023-03-01T00:37:08;0.00;99.90
57390;DHT22;43217;52.694;6.214;2023-03-01T00:39:33;-0.10;99.90
57390;DHT22;43217;52.694;6.214;2023-03-01T00:41:59;-0.10;99.90
57390;DHT22;43217;52.694;6.214;2023-03-01T00:44:25;-0.10;99.90
57390;DHT22;43217;52.694;6.214;2023-03-01T00:46:50;-0.10;99.90
57390;DHT22;43217;52.694;6.214;2023-03-01T00:49:16;-0.10;99.90
57390;DHT22;43217;52.694;6.214;2023-03-01T00:51:42;-0.10;99.90
57390;DHT22;43217;52.694;6.214;2023-03-01T00:54:08;-0.10;99.90
57390;DHT22;43217;52.694;6.214;2023-03-01T00:56:34;-0.10;99.90
57390;DHT22;43217;52.694;6.214;2023-03-01T00:59:00;-0.10;99.90
57390;DHT22;43217;52.694;6.214;2023-03-01T01:01:29;-0.20;99.90
57390;DHT22;43217;52.694;6.214;2023-03-01T01:03:58;-0.20;99.90
57390;DHT22;43217;52.694;6.214;2023-03-01T01:06:27;-0.20;99.90
57390;DHT22;43217;52.694;6.214;2023-03-01T01:08:53;-0.20;99.90
57390;DHT22;43217;52.694;6.214;2023-03-01T01:11:23;-0.20;99.90
57390;DHT22;43217;52.694;6.214;2023-03-01T01:13:49;-0.20;99.90
57390;DHT22;43217;52.694;6.214;2023-03-01T01:16:17;-0.20;99.90
57390;DHT22;43217;52.694;6.214;2023-03-01T01:18:43;-0.20;99.90
57390;DHT22;43217;52.694;6.214;2023-03-01T01:21:11;-0.30;99.90
57390;DHT22;43217;52.694;6.214;2023-03-01T01:23:38;-0.30;99.90
57390;DHT22;43217;52.694;6.214;2023-03-01T01:26:10;-0.30;99.90
57390;DHT22;43217;52.694;6.214;2023-03-01T01:28:36;-0.30;99.90
57390;DHT22;43217;52.694;6.214;2023-03-01T01:31:02;-0.30;99.90
57390;DHT22;43217;52.694;6.214;2023-03-01T01:33:29;-0.30;99.90
57390;DHT22;43217;52.694;6.214;2023-03-01T01:35:55;-0.30;99.90
57390;DHT22;43217;52.694;6.214;2023-03-01T01:38:21;-0.40;99.90
57390;DHT22;43217;52.694;6.214;2023-03-01T01:40:48;-0.40;99.90
57390;DHT22;43217;52.694;6.214;2023-03-01T01:43:26;-0.40;99.90
57390;DHT22;43217;52.694;6.214;2023-03-01T01:45:55;-0.40;99.90
57390;DHT22;43217;52.694;6.214;2023-03-01T01:48:24;-0.50;99.90
57390;DHT22;43217;52.694;6.214;2023-03-01T01:51:10;-0.50;99.90
57390;DHT22;43217;52.694;6.214;2023-03-01T01:53:37;-0.50;99.90
57390;DHT22;43217;52.694;6.214;2023-03-01T01:56:07;-0.50;99.90
57390;DHT22;43217;52.694;6.214;2023-03-01T01:58:33;-0.50;99.90
57390;DHT22;43217;52.694;6.214;2023-03-01T02:00:59;-0.50;99.90
57390;DHT22;43217;52.694;6.214;2023-03-01T02:03:30;-0.50;99.90
57390;DHT22;43217;52.694;6.214;2023-03-01T02:06:10;-0.50;99.90
57390;DHT22;43217;52.694;6.214;2023-03-01T02:08:39;-0.50;99.90
57390;DHT22;43217;52.694;6.214;2023-03-01T02:11:07;-0.50;99.90
57390;DHT22;43217;52.694;6.214;2023-03-01T02:13:34;-0.50;99.90
57390;DHT22;43217;52.694;6.214;2023-03-01T02:16:09;-0.40;99.90
57390;DHT22;43217;52.694;6.214;2023-03-01T02:18:35;-0.40;99.90
57390;DHT22;43217;52.694;6.214;2023-03-01T02:21:12;-0.40;99.90
57390;DHT22;43217;52.694;6.214;2023-03-01T02:23:40;-0.40;99.90
57390;DHT22;43217;52.694;6.214;2023-03-01T02:26:10;-0.40;99.90
57390;DHT22;43217;52.694;6.214;2023-03-01T02:28:38;-0.40;99.90
57390;DHT22;43217;52.694;6.214;2023-03-01T02:31:05;-0.40;99.90
57390;DHT22;43217;52.694;6.214;2023-03-01T02:33:51;-0.40;99.90
57390;DHT22;43217;52.694;6.214;2023-03-01T02:36:19;-0.40;99.90
57390;DHT22;43217;52.694;6.214;2023-03-01T02:38:47;-0.30;99.90
57390;DHT22;43217;52.694;6.214;2023-03-01T02:41:15;-0.30;99.90
57390;DHT22;43217;52.694;6.214;2023-03-01T02:43:41;-0.30;99.90
57390;DHT22;43217;52.694;6.214;2023-03-01T02:46:20;-0.30;99.90
57390;DHT22;43217;52.694;6.214;2023-03-01T02:48:56;-0.30;99.90
57390;DHT22;43217;52.694;6.214;2023-03-01T02:57:09;-0.40;99.90
57390;DHT22;43217;52.694;6.214;2023-03-01T02:59:37;-0.50;99.90
57390;DHT22;43217;52.694;6.214;2023-03-01T03:02:05;-0.50;99.90
57390;DHT22;43217;52.694;6.214;2023-03-01T03:04:31;-0.50;99.90
57390;DHT22;43217;52.694;6.214;2023-03-01T03:06:57;-0.50;99.90
57390;DHT22;43217;52.694;6.214;2023-03-01T03:09:23;-0.50;99.90
57390;DHT22;43217;52.694;6.214;2023-03-01T03:11:48;-0.50;99.90
57390;DHT22;43217;52.694;6.214;2023-03-01T03:14:15;-0.60;99.90
57390;DHT22;43217;52.694;6.214;2023-03-01T03:16:43;-0.60;99.90
57390;DHT22;43217;52.694;6.214;2023-03-01T03:19:09;-0.60;99.90
57390;DHT22;43217;52.694;6.214;2023-03-01T03:21:35;-0.70;99.90
57390;DHT22;43217;52.694;6.214;2023-03-01T03:24:01;-0.70;99.90
57390;DHT22;43217;52.694;6.214;2023-03-01T03:26:27;-0.70;99.90
57390;DHT22;43217;52.694;6.214;2023-03-01T03:28:53;-0.80;99.90
57390;DHT22;43217;52.694;6.214;2023-03-01T03:31:18;-0.80;99.90
57390;DHT22;43217;52.694;6.214;2023-03-01T03:33:44;-0.90;99.90
57390;DHT22;43217;52.694;6.214;2023-03-01T03:36:14;-0.90;99.90
57390;DHT22;43217;52.694;6.214;2023-03-01T03:38:43;-1.00;99.90
57390;DHT22;43217;52.694;6.214;2023-03-01T03:41:09;-1.00;99.90
57390;DHT22;43217;52.694;6.214;2023-03-01T03:43:37;-1.10;99.90
57390;DHT22;43217;52.694;6.214;2023-03-01T03:46:03;-1.10;99.90
57390;DHT22;43217;52.694;6.214;2023-03-01T03:48:38;-1.10;99.90
57390;DHT22;43217;52.694;6.214;2023-03-01T03:51:05;-1.10;99.90
57390;DHT22;43217;52.694;6.214;2023-03-01T03:53:31;-1.10;99.90
57390;DHT22;43217;52.694;6.214;2023-03-01T03:55:57;-1.10;99.90
57390;DHT22;43217;52.694;6.214;2023-03-01T03:58:25;-1.10;99.90
57390;DHT22;43217;52.694;6.214;2023-03-01T04:00:53;-1.10;99.90
57390;DHT22;43217;52.694;6.214;2023-03-01T04:03:19;-1.10;99.90
57390;DHT22;43217;52.694;6.214;2023-03-01T04:05:45;-1.20;99.90
57390;DHT22;43217;52.694;6.214;2023-03-01T04:08:12;-1.20;99.90
57390;DHT22;43217;52.694;6.214;2023-03-01T04:10:46;-1.20;99.90
57390;DHT22;43217;52.694;6.214;2023-03-01T04:13:18;-1.20;99.90
57390;DHT22;43217;52.694;6.214;2023-03-01T04:15:46;-1.20;99.90
57390;DHT22;43217;52.694;6.214;2023-03-01T04:18:16;-1.30;99.90
57390;DHT22;43217;52.694;6.214;2023-03-01T04:20:42;-1.30;99.90
57390;DHT22;43217;52.694;6.214;2023-03-01T04:25:44;-1.30;99.90
57390;DHT22;43217;52.694;6.214;2023-03-01T04:28:10;-1.30;99.90
57390;DHT22;43217;52.694;6.214;2023-03-01T04:30:38;-1.40;99.90
57390;DHT22;43217;52.694;6.214;2023-03-01T04:33:06;-1.40;99.90
57390;DHT22;43217;52.694;6.214;2023-03-01T04:35:32;-1.40;99.90
57390;DHT22;43217;52.694;6.214;2023-03-01T04:37:58;-1.50;99.90
57390;DHT22;43217;52.694;6.214;2023-03-01T04:40:24;-1.50;99.90
57390;DHT22;43217;52.694;6.214;2023-03-01T04:42:50;-1.60;99.90
57390;DHT22;43217;52.694;6.214;2023-03-01T04:45:16;-1.60;99.90
57390;DHT22;43217;52.694;6.214;2023-03-01T04:47:43;-1.60;99.90
57390;DHT22;43217;52.694;6.214;2023-03-01T04:50:10;-1.60;99.90
57390;DHT22;43217;52.694;6.214;2023-03-01T04:52:37;-1.60;99.90
57390;DHT22;43217;52.694;6.214;2023-03-01T04:55:03;-1.60;99.90
57390;DHT22;43217;52.694;6.214;2023-03-01T04:57:30;-1.60;99.90
57390;DHT22;43217;52.694;6.214;2023-03-01T04:59:55;-1.60;99.90
57390;DHT22;43217;52.694;6.214;2023-03-01T05:02:21;-1.60;99.90
57390;DHT22;43217;52.694;6.214;2023-03-01T05:04:47;-1.60;99.90
57390;DHT22;43217;52.694;6.214;2023-03-01T05:07:12;-1.60;99.90
57390;DHT22;43217;52.694;6.214;2023-03-01T05:09:46;-1.70;99.90
57390;DHT22;43217;52.694;6.214;2023-03-01T05:12:13;-1.70;99.90
57390;DHT22;43217;52.694;6.214;2023-03-01T05:14:39;-1.70;99.90
57390;DHT22;43217;52.694;6.214;2023-03-01T05:17:05;-1.70;99.90
57390;DHT22;43217;52.694;6.214;2023-03-01T05:19:31;-1.80;99.90
57390;DHT22;43217;52.694;6.214;2023-03-01T05:21:58;-1.80;99.90
57390;DHT22;43217;52.694;6.214;2023-03-01T05:24:27;-1.80;99.90
57390;DHT22;43217;52.694;6.214;2023-03-01T05:26:54;-1.90;99.90
57390;DHT22;43217;52.694;6.214;2023-03-01T05:29:21;-1.90;99.90
57390;DHT22;43217;52.694;6.214;2023-03-01T05:31:54;-1.90;99.90
57390;DHT22;43217;52.694;6.214;2023-03-01T05:34:28;-2.00;99.90
57390;DHT22;43217;52.694;6.214;2023-03-01T05:36:54;-2.00;99.90
57390;DHT22;43217;52.694;6.214;2023-03-01T05:39:21;-2.10;99.90
57390;DHT22;43217;52.694;6.214;2023-03-01T05:41:48;-2.10;99.90
57390;DHT22;43217;52.694;6.214;2023-03-01T05:44:14;-2.10;99.90
57390;DHT22;43217;52.694;6.214;2023-03-01T05:46:40;-2.10;99.90
57390;DHT22;43217;52.694;6.214;2023-03-01T05:49:05;-2.10;99.90
57390;DHT22;43217;52.694;6.214;2023-03-01T05:51:31;-2.10;99.90
57390;DHT22;43217;52.694;6.214;2023-03-01T05:53:57;-2.10;99.90
57390;DHT22;43217;52.694;6.214;2023-03-01T05:56:23;-2.10;99.90
57390;DHT22;43217;52.694;6.214;2023-03-01T05:58:49;-2.10;99.90
57390;DHT22;43217;52.694;6.214;2023-03-01T06:01:15;-2.10;99.90
57390;DHT22;43217;52.694;6.214;2023-03-01T06:03:40;-2.10;99.90
57390;DHT22;43217;52.694;6.214;2023-03-01T06:06:06;-2.10;99.90
57390;DHT22;43217;52.694;6.214;2023-03-01T06:08:32;-2.10;99.90
57390;DHT22;43217;52.694;6.214;2023-03-01T06:10:57;-2.10;99.90
57390;DHT22;43217;52.694;6.214;2023-03-01T06:13:23;-2.10;99.90
57390;DHT22;43217;52.694;6.214;2023-03-01T06:15:49;-2.10;99.90
57390;DHT22;43217;52.694;6.214;2023-03-01T06:18:15;-2.10;99.90
57390;DHT22;43217;52.694;6.214;2023-03-01T06:20:41;-2.10;99.90
57390;DHT22;43217;52.694;6.214;2023-03-01T06:23:06;-2.20;99.90
57390;DHT22;43217;52.694;6.214;2023-03-01T06:25:32;-2.20;99.90
57390;DHT22;43217;52.694;6.214;2023-03-01T06:27:58;-2.10;99.90
57390;DHT22;43217;52.694;6.214;2023-03-01T06:30:24;-2.10;99.90
57390;DHT22;43217;52.694;6.214;2023-03-01T06:32:51;-2.10;99.90
57390;DHT22;43217;52.694;6.214;2023-03-01T06:35:18;-2.10;99.90
57390;DHT22;43217;52.694;6.214;2023-03-01T06:37:45;-2.10;99.90
57390;DHT22;43217;52.694;6.214;2023-03-01T06:40:11;-2.10;99.90
57390;DHT22;43217;52.694;6.214;2023-03-01T06:42:40;-2.00;99.90
57390;DHT22;43217;52.694;6.214;2023-03-01T06:45:07;-2.00;99.90
57390;DHT22;43217;52.694;6.214;2023-03-01T06:47:33;-2.00;99.90
57390;DHT22;43217;52.694;6.214;2023-03-01T06:50:00;-2.00;99.90
57390;DHT22;43217;52.694;6.214;2023-03-01T06:52:26;-2.00;99.90
57390;DHT22;43217;52.694;6.214;2023-03-01T06:54:51;-2.00;99.90
57390;DHT22;43217;52.694;6.214;2023-03-01T06:57:17;-2.00;99.90
57390;DHT22;43217;52.694;6.214;2023-03-01T06:59:43;-1.90;99.90
57390;DHT22;43217;52.694;6.214;2023-03-01T07:02:12;-1.90;99.90
57390;DHT22;43217;52.694;6.214;2023-03-01T07:04:38;-1.90;99.90
57390;DHT22;43217;52.694;6.214;2023-03-01T07:07:04;-1.90;99.90
57390;DHT22;43217;52.694;6.214;2023-03-01T07:09:30;-1.80;99.90
57390;DHT22;43217;52.694;6.214;2023-03-01T07:11:56;-1.80;99.90
57390;DHT22;43217;52.694;6.214;2023-03-01T07:14:22;-1.80;99.90
57390;DHT22;43217;52.694;6.214;2023-03-01T07:16:54;-1.70;99.90
57390;DHT22;43217;52.694;6.214;2023-03-01T07:19:21;-1.60;99.90
57390;DHT22;43217;52.694;6.214;2023-03-01T07:21:47;-1.60;99.90
57390;DHT22;43217;52.694;6.214;2023-03-01T07:24:12;-1.60;99.90
57390;DHT22;43217;52.694;6.214;2023-03-01T07:26:38;-1.50;99.90
57390;DHT22;43217;52.694;6.214;2023-03-01T07:29:05;-1.50;99.90
57390;DHT22;43217;52.694;6.214;2023-03-01T07:31:32;-1.40;99.90
57390;DHT22;43217;52.694;6.214;2023-03-01T07:33:57;-1.30;99.90
57390;DHT22;43217;52.694;6.214;2023-03-01T07:36:23;-1.30;99.90
57390;DHT22;43217;52.694;6.214;2023-03-01T07:38:49;-1.20;99.90
57390;DHT22;43217;52.694;6.214;2023-03-01T07:41:15;-1.20;99.90
57390;DHT22;43217;52.694;6.214;2023-03-01T07:43:41;-1.10;99.90
57390;DHT22;43217;52.694;6.214;2023-03-01T07:46:06;-1.00;99.90
57390;DHT22;43217;52.694;6.214;2023-03-01T07:48:32;-1.00;99.90
57390;DHT22;43217;52.694;6.214;2023-03-01T07:51:03;-0.90;99.90
57390;DHT22;43217;52.694;6.214;2023-03-01T07:53:30;-0.80;99.90
57390;DHT22;43217;52.694;6.214;2023-03-01T07:56:10;-0.80;99.90
57390;DHT22;43217;52.694;6.214;2023-03-01T07:58:38;-0.70;99.90
57390;DHT22;43217;52.694;6.214;2023-03-01T08:01:05;-0.60;99.90
57390;DHT22;43217;52.694;6.214;2023-03-01T08:03:32;-0.50;99.90
57390;DHT22;43217;52.694;6.214;2023-03-01T08:06:05;-0.40;99.90
57390;DHT22;43217;52.694;6.214;2023-03-01T08:08:31;-0.30;99.90
57390;DHT22;43217;52.694;6.214;2023-03-01T08:10:58;-0.30;99.90
57390;DHT22;43217;52.694;6.214;2023-03-01T08:13:24;-0.20;99.90
57390;DHT22;43217;52.694;6.214;2023-03-01T08:15:50;-0.10;99.90
57390;DHT22;43217;52.694;6.214;2023-03-01T08:18:17;-0.10;99.90
57390;DHT22;43217;52.694;6.214;2023-03-01T08:20:43;0.00;99.90
57390;DHT22;43217;52.694;6.214;2023-03-01T08:23:09;0.10;99.90
57390;DHT22;43217;52.694;6.214;2023-03-01T08:25:35;0.10;99.90
57390;DHT22;43217;52.694;6.214;2023-03-01T08:28:01;0.10;99.90
57390;DHT22;43217;52.694;6.214;2023-03-01T08:30:26;0.20;99.90
57390;DHT22;43217;52.694;6.214;2023-03-01T08:32:52;0.30;99.90
57390;DHT22;43217;52.694;6.214;2023-03-01T08:35:18;0.30;99.90
57390;DHT22;43217;52.694;6.214;2023-03-01T08:37:44;0.30;99.90
57390;DHT22;43217;52.694;6.214;2023-03-01T08:40:10;0.40;99.90
57390;DHT22;43217;52.694;6.214;2023-03-01T08:42:39;0.50;99.90
57390;DHT22;43217;52.694;6.214;2023-03-01T08:45:06;0.60;99.90
57390;DHT22;43217;52.694;6.214;2023-03-01T08:47:32;0.70;99.90
57390;DHT22;43217;52.694;6.214;2023-03-01T08:50:01;0.70;99.90
57390;DHT22;43217;52.694;6.214;2023-03-01T08:52:27;0.90;99.90
57390;DHT22;43217;52.694;6.214;2023-03-01T08:54:53;0.90;99.90
57390;DHT22;43217;52.694;6.214;2023-03-01T08:57:19;1.00;99.90
57390;DHT22;43217;52.694;6.214;2023-03-01T08:59:44;1.10;99.90
57390;DHT22;43217;52.694;6.214;2023-03-01T09:02:16;1.20;99.90
57390;DHT22;43217;52.694;6.214;2023-03-01T09:04:42;1.30;99.90
57390;DHT22;43217;52.694;6.214;2023-03-01T09:07:08;1.40;99.90
57390;DHT22;43217;52.694;6.214;2023-03-01T09:09:34;1.40;99.90
57390;DHT22;43217;52.694;6.214;2023-03-01T09:12:01;1.50;99.90
57390;DHT22;43217;52.694;6.214;2023-03-01T09:14:27;1.60;99.90
57390;DHT22;43217;52.694;6.214;2023-03-01T09:16:52;1.70;99.90
57390;DHT22;43217;52.694;6.214;2023-03-01T09:19:18;1.80;99.90
57390;DHT22;43217;52.694;6.214;2023-03-01T09:21:43;1.80;99.90
57390;DHT22;43217;52.694;6.214;2023-03-01T09:24:21;1.90;99.90
57390;DHT22;43217;52.694;6.214;2023-03-01T09:26:47;2.00;99.90
57390;DHT22;43217;52.694;6.214;2023-03-01T09:29:14;2.10;99.90
57390;DHT22;43217;52.694;6.214;2023-03-01T09:31:40;2.30;99.90
57390;DHT22;43217;52.694;6.214;2023-03-01T09:34:07;2.40;99.90
57390;DHT22;43217;52.694;6.214;2023-03-01T09:36:33;2.50;99.90
57390;DHT22;43217;52.694;6.214;2023-03-01T09:38:59;2.60;99.90
57390;DHT22;43217;52.694;6.214;2023-03-01T09:41:49;2.70;99.90
57390;DHT22;43217;52.694;6.214;2023-03-01T09:46:50;2.90;99.90
57390;DHT22;43217;52.694;6.214;2023-03-01T09:49:27;3.10;99.90
57390;DHT22;43217;52.694;6.214;2023-03-01T09:54:44;3.40;99.90
57390;DHT22;43217;52.694;6.214;2023-03-01T09:57:18;3.50;99.90
57390;DHT22;43217;52.694;6.214;2023-03-01T10:02:44;3.70;99.90
57390;DHT22;43217;52.694;6.214;2023-03-01T10:10:29;3.90;99.90
57390;DHT22;43217;52.694;6.214;2023-03-01T10:12:57;4.00;99.90
57390;DHT22;43217;52.694;6.214;2023-03-01T10:15:35;4.10;99.90
57390;DHT22;43217;52.694;6.214;2023-03-01T10:18:09;4.30;99.90
57390;DHT22;43217;52.694;6.214;2023-03-01T10:20:52;4.30;99.90
57390;DHT22;43217;52.694;6.214;2023-03-01T10:23:18;4.40;99.90
57390;DHT22;43217;52.694;6.214;2023-03-01T10:25:59;4.40;99.90
57390;DHT22;43217;52.694;6.214;2023-03-01T10:29:08;4.40;99.90
57390;DHT22;43217;52.694;6.214;2023-03-01T10:34:31;4.50;99.90
57390;DHT22;43217;52.694;6.214;2023-03-01T10:37:18;4.60;99.90
57390;DHT22;43217;52.694;6.214;2023-03-01T10:40:08;4.60;99.90
57390;DHT22;43217;52.694;6.214;2023-03-01T10:42:35;4.70;99.90
57390;DHT22;43217;52.694;6.214;2023-03-01T10:48:26;4.80;99.90
57390;DHT22;43217;52.694;6.214;2023-03-01T10:53:28;5.00;99.90
57390;DHT22;43217;52.694;6.214;2023-03-01T10:58:28;5.10;99.90
57390;DHT22;43217;52.694;6.214;2023-03-01T11:01:01;5.10;99.90
57390;DHT22;43217;52.694;6.214;2023-03-01T11:05:58;5.10;99.90
57390;DHT22;43217;52.694;6.214;2023-03-01T11:08:36;5.10;99.90
57390;DHT22;43217;52.694;6.214;2023-03-01T11:13:34;5.20;99.90
57390;DHT22;43217;52.694;6.214;2023-03-01T11:16:05;5.20;99.90
57390;DHT22;43217;52.694;6.214;2023-03-01T11:18:32;5.20;99.90
57390;DHT22;43217;52.694;6.214;2023-03-01T11:20:59;5.30;99.90
57390;DHT22;43217;52.694;6.214;2023-03-01T11:23:28;5.40;99.90
57390;DHT22;43217;52.694;6.214;2023-03-01T11:26:05;5.40;99.90
57390;DHT22;43217;52.694;6.214;2023-03-01T11:28:33;5.50;99.90
57390;DHT22;43217;52.694;6.214;2023-03-01T11:36:04;5.70;99.90
57390;DHT22;43217;52.694;6.214;2023-03-01T11:38:34;5.80;99.90
57390;DHT22;43217;52.694;6.214;2023-03-01T11:43:57;5.80;99.90
57390;DHT22;43217;52.694;6.214;2023-03-01T11:49:19;5.90;99.90
57390;DHT22;43217;52.694;6.214;2023-03-01T11:52:08;5.90;99.90
57390;DHT22;43217;52.694;6.214;2023-03-01T11:58:00;6.00;99.90
57390;DHT22;43217;52.694;6.214;2023-03-01T12:20:22;6.20;99.90
57390;DHT22;43217;52.694;6.214;2023-03-01T12:25:25;6.30;99.90
57390;DHT22;43217;52.694;6.214;2023-03-01T12:49:14;6.50;95.40
57390;DHT22;43217;52.694;6.214;2023-03-01T12:51:48;6.50;94.30
57390;DHT22;43217;52.694;6.214;2023-03-01T12:54:27;6.50;95.10
57390;DHT22;43217;52.694;6.214;2023-03-01T12:56:55;6.50;95.30
57390;DHT22;43217;52.694;6.214;2023-03-01T12:59:34;6.50;94.60
57390;DHT22;43217;52.694;6.214;2023-03-01T13:07:35;6.70;94.20
57390;DHT22;43217;52.694;6.214;2023-03-01T13:10:33;6.70;94.20
57390;DHT22;43217;52.694;6.214;2023-03-01T13:15:40;6.70;92.80
57390;DHT22;43217;52.694;6.214;2023-03-01T13:18:32;6.70;95.00
57390;DHT22;43217;52.694;6.214;2023-03-01T13:21:00;6.70;96.00
57390;DHT22;43217;52.694;6.214;2023-03-01T13:23:37;6.80;96.60
57390;DHT22;43217;52.694;6.214;2023-03-01T13:26:15;6.80;94.80
57390;DHT22;43217;52.694;6.214;2023-03-01T13:33:56;6.80;95.60
57390;DHT22;43217;52.694;6.214;2023-03-01T13:38:57;6.80;95.30
57390;DHT22;43217;52.694;6.214;2023-03-01T13:44:25;6.80;94.00
57390;DHT22;43217;52.694;6.214;2023-03-01T13:46:58;6.90;95.30
57390;DHT22;43217;52.694;6.214;2023-03-01T13:49:41;6.80;94.90
57390;DHT22;43217;52.694;6.214;2023-03-01T13:55:36;6.80;96.50
57390;DHT22;43217;52.694;6.214;2023-03-01T13:58:05;6.90;96.30
57390;DHT22;43217;52.694;6.214;2023-03-01T14:00:39;6.90;95.50
57390;DHT22;43217;52.694;6.214;2023-03-01T14:03:13;6.90;94.70
57390;DHT22;43217;52.694;6.214;2023-03-01T14:05:41;6.90;93.30
57390;DHT22;43217;52.694;6.214;2023-03-01T14:08:25;6.90;95.20
57390;DHT22;43217;52.694;6.214;2023-03-01T14:11:52;6.90;96.10
57390;DHT22;43217;52.694;6.214;2023-03-01T14:16:57;6.90;94.90
57390;DHT22;43217;52.694;6.214;2023-03-01T14:19:27;6.90;94.00
57390;DHT22;43217;52.694;6.214;2023-03-01T14:24:29;6.90;92.20
57390;DHT22;43217;52.694;6.214;2023-03-01T14:26:55;6.90;93.70
57390;DHT22;43217;52.694;6.214;2023-03-01T14:29:34;6.90;95.00
57390;DHT22;43217;52.694;6.214;2023-03-01T14:32:21;6.90;96.30
57390;DHT22;43217;52.694;6.214;2023-03-01T14:34:50;6.90;96.20
57390;DHT22;43217;52.694;6.214;2023-03-01T14:37:31;6.90;97.60
57390;DHT22;43217;52.694;6.214;2023-03-01T14:39:59;6.90;98.10
57390;DHT22;43217;52.694;6.214;2023-03-01T14:42:30;7.00;98.60
57390;DHT22;43217;52.694;6.214;2023-03-01T14:44:57;7.00;99.20
57390;DHT22;43217;52.694;6.214;2023-03-01T14:47:34;6.90;99.10
57390;DHT22;43217;52.694;6.214;2023-03-01T14:50:21;6.90;99.80
57390;DHT22;43217;52.694;6.214;2023-03-01T14:52:49;6.90;99.60
57390;DHT22;43217;52.694;6.214;2023-03-01T14:55:18;6.90;99.80
57390;DHT22;43217;52.694;6.214;2023-03-01T14:57:47;7.00;99.90
57390;DHT22;43217;52.694;6.214;2023-03-01T15:00:19;7.00;99.50
57390;DHT22;43217;52.694;6.214;2023-03-01T15:02:47;7.00;98.20
57390;DHT22;43217;52.694;6.214;2023-03-01T15:05:15;7.00;98.70
57390;DHT22;43217;52.694;6.214;2023-03-01T15:07:43;7.00;98.80
57390;DHT22;43217;52.694;6.214;2023-03-01T15:10:34;7.00;97.90
57390;DHT22;43217;52.694;6.214;2023-03-01T15:13:12;7.10;95.60
57390;DHT22;43217;52.694;6.214;2023-03-01T15:15:44;7.10;97.40
57390;DHT22;43217;52.694;6.214;2023-03-01T15:18:22;7.00;97.50
57390;DHT22;43217;52.694;6.214;2023-03-01T15:20:51;7.10;97.30
57390;DHT22;43217;52.694;6.214;2023-03-01T15:23:25;7.00;97.70
57390;DHT22;43217;52.694;6.214;2023-03-01T15:25:53;7.00;96.80
57390;DHT22;43217;52.694;6.214;2023-03-01T15:28:28;7.10;95.80
57390;DHT22;43217;52.694;6.214;2023-03-01T15:30:58;7.10;95.60
57390;DHT22;43217;52.694;6.214;2023-03-01T15:35:53;7.00;94.80
57390;DHT22;43217;52.694;6.214;2023-03-01T15:40:57;7.00;96.40
57390;DHT22;43217;52.694;6.214;2023-03-01T15:43:45;7.00;96.30
57390;DHT22;43217;52.694;6.214;2023-03-01T15:46:21;7.00;96.00
57390;DHT22;43217;52.694;6.214;2023-03-01T15:48:50;7.00;96.10
57390;DHT22;43217;52.694;6.214;2023-03-01T15:51:20;7.00;97.10
57390;DHT22;43217;52.694;6.214;2023-03-01T15:53:51;7.00;95.50
57390;DHT22;43217;52.694;6.214;2023-03-01T15:56:19;7.00;95.40
57390;DHT22;43217;52.694;6.214;2023-03-01T15:58:44;6.90;96.00
57390;DHT22;43217;52.694;6.214;2023-03-01T16:01:14;6.90;96.30
57390;DHT22;43217;52.694;6.214;2023-03-01T16:03:42;6.90;96.40
57390;DHT22;43217;52.694;6.214;2023-03-01T16:06:10;6.80;97.00
57390;DHT22;43217;52.694;6.214;2023-03-01T16:08:36;6.80;96.10
57390;DHT22;43217;52.694;6.214;2023-03-01T16:11:04;6.80;97.10
57390;DHT22;43217;52.694;6.214;2023-03-01T16:13:31;6.80;97.30
57390;DHT22;43217;52.694;6.214;2023-03-01T16:15:58;6.70;97.00
57390;DHT22;43217;52.694;6.214;2023-03-01T16:18:23;6.70;96.70
57390;DHT22;43217;52.694;6.214;2023-03-01T16:20:49;6.70;97.00
57390;DHT22;43217;52.694;6.214;2023-03-01T16:23:15;6.70;96.30
57390;DHT22;43217;52.694;6.214;2023-03-01T16:25:40;6.70;96.80
57390;DHT22;43217;52.694;6.214;2023-03-01T16:28:07;6.60;96.80
57390;DHT22;43217;52.694;6.214;2023-03-01T16:30:37;6.60;97.20
57390;DHT22;43217;52.694;6.214;2023-03-01T16:33:03;6.50;97.70
57390;DHT22;43217;52.694;6.214;2023-03-01T16:35:32;6.50;98.50
57390;DHT22;43217;52.694;6.214;2023-03-01T16:37:59;6.40;99.20
57390;DHT22;43217;52.694;6.214;2023-03-01T16:40:27;6.40;99.90
57390;DHT22;43217;52.694;6.214;2023-03-01T16:42:53;6.30;99.90
57390;DHT22;43217;52.694;6.214;2023-03-01T16:45:19;6.30;99.90
57390;DHT22;43217;52.694;6.214;2023-03-01T16:47:45;6.30;99.90
57390;DHT22;43217;52.694;6.214;2023-03-01T16:50:11;6.20;99.90
57390;DHT22;43217;52.694;6.214;2023-03-01T16:52:37;6.20;99.90
57390;DHT22;43217;52.694;6.214;2023-03-01T16:55:04;6.10;99.90
57390;DHT22;43217;52.694;6.214;2023-03-01T16:57:30;6.10;99.90
57390;DHT22;43217;52.694;6.214;2023-03-01T16:59:56;6.00;99.90
57390;DHT22;43217;52.694;6.214;2023-03-01T17:02:21;6.00;99.90
57390;DHT22;43217;52.694;6.214;2023-03-01T17:04:54;5.90;99.90
57390;DHT22;43217;52.694;6.214;2023-03-01T17:07:21;5.80;99.90
57390;DHT22;43217;52.694;6.214;2023-03-01T17:09:46;5.80;99.90
57390;DHT22;43217;52.694;6.214;2023-03-01T17:12:13;5.70;99.90
57390;DHT22;43217;52.694;6.214;2023-03-01T17:14:39;5.70;99.90
57390;DHT22;43217;52.694;6.214;2023-03-01T17:17:10;5.60;99.90
57390;DHT22;43217;52.694;6.214;2023-03-01T17:19:37;5.60;99.90
57390;DHT22;43217;52.694;6.214;2023-03-01T17:22:09;5.50;99.90
57390;DHT22;43217;52.694;6.214;2023-03-01T17:24:37;5.40;99.90
57390;DHT22;43217;52.694;6.214;2023-03-01T17:27:03;5.40;99.90
57390;DHT22;43217;52.694;6.214;2023-03-01T17:29:29;5.30;99.90
57390;DHT22;43217;52.694;6.214;2023-03-01T17:31:54;5.30;99.90
57390;DHT22;43217;52.694;6.214;2023-03-01T17:34:22;5.30;99.90
57390;DHT22;43217;52.694;6.214;2023-03-01T17:36:48;5.30;99.90
57390;DHT22;43217;52.694;6.214;2023-03-01T17:39:17;5.30;99.90
57390;DHT22;43217;52.694;6.214;2023-03-01T17:41:46;5.30;99.90
57390;DHT22;43217;52.694;6.214;2023-03-01T17:44:11;5.20;99.90
57390;DHT22;43217;52.694;6.214;2023-03-01T17:46:37;5.20;99.90
57390;DHT22;43217;52.694;6.214;2023-03-01T17:49:03;5.10;99.90
57390;DHT22;43217;52.694;6.214;2023-03-01T17:51:28;5.10;99.90
57390;DHT22;43217;52.694;6.214;2023-03-01T17:53:54;5.00;99.90
57390;DHT22;43217;52.694;6.214;2023-03-01T17:56:19;5.00;99.90
57390;DHT22;43217;52.694;6.214;2023-03-01T17:58:45;4.90;99.90